Time;durP1;ratioP1;P1;durP2;ratioP2;P2;SDS_P1;SDS_P2;PMS_P1;PMS_P2;Temp;Humidity;BMP_temperature;BMP_pressure;BME280_temperature;BME280_humidity;BME280_pressure;Samples;Min_cycle;Max_cycle;Signal;HPM_P1;HPM_P2
2021/08/07 00:00:39;;;;;;;7.60;1.98;;;;;;;;;;1469719;40;20437;-82
2021/08/07 00:01:40;;;;;;;6.00;2.10;;;;;;;;;;1474457;40;20498;-82
2021/08/07 00:02:42;;;;;;;7.43;1.80;;;;;;;;;;1479888;40;20425;-82
2021/08/07 00:03:45;;;;;;;9.77;2.17;;;;;;;;;;1468053;40;20822;-81
2021/08/07 00:05:00;;;;;;;9.57;1.60;;;;;;;;;;1471162;40;20384;-80
2021/08/07 00:06:02;;;;;;;10.57;2.05;;;;;;;;;;1469759;40;20426;-83
2021/08/07 00:07:03;;;;;;;6.82;1.95;;;;;;;;;;1463052;40;20400;-84
2021/08/07 00:08:08;;;;;;;6.38;1.25;;;;;;;;;;1471059;40;20418;-81
2021/08/07 00:09:10;;;;;;;5.78;1.33;;;;;;;;;;1474255;40;20632;-82
2021/08/07 00:10:12;;;;;;;7.82;1.70;;;;;;;;;;1474639;40;20469;-83
2021/08/07 00:11:14;;;;;;;10.13;2.05;;;;;;;;;;1480726;40;20542;-81
2021/08/07 00:12:16;;;;;;;12.30;1.95;;;;;;;;;;1482494;40;20429;-82
2021/08/07 00:13:18;;;;;;;8.48;1.70;;;;;;;;;;1484294;40;20472;-81
2021/08/07 00:14:20;;;;;;;8.57;1.58;;;;;;;;;;1484420;40;20406;-81
2021/08/07 00:15:22;;;;;;;10.55;1.80;;;;;;;;;;1479990;40;20435;-81
2021/08/07 00:16:23;;;;;;;8.32;1.73;;;;;;;;;;1471365;40;20470;-81
2021/08/07 00:17:25;;;;;;;6.80;1.02;;;;;;;;;;1475603;40;20404;-81
2021/08/07 00:18:27;;;;;;;9.02;1.67;;;;;;;;;;1479437;40;20418;-81
2021/08/07 00:19:30;;;;;;;8.63;1.73;;;;;;;;;;1471179;40;20499;-81
2021/08/07 00:20:32;;;;;;;16.30;2.42;;;;;;;;;;1467522;40;20406;-80
2021/08/07 00:21:33;;;;;;;9.45;2.10;;;;;;;;;;1470698;40;20697;-81
2021/08/07 00:22:35;;;;;;;11.45;2.80;;;;;;;;;;1469753;40;20421;-82
2021/08/07 00:23:37;;;;;;;12.35;2.85;;;;;;;;;;1468399;40;20409;-82
2021/08/07 00:24:39;;;;;;;11.02;1.60;;;;;;;;;;1468671;40;20861;-81
2021/08/07 00:25:41;;;;;;;11.10;2.33;;;;;;;;;;1469866;40;20935;-82
2021/08/07 00:26:43;;;;;;;7.78;1.77;;;;;;;;;;1473744;40;20741;-82
2021/08/07 00:27:45;;;;;;;8.38;2.30;;;;;;;;;;1469265;40;20491;-81
2021/08/07 00:28:47;;;;;;;10.57;1.90;;;;;;;;;;1469658;40;20446;-82
2021/08/07 00:29:49;;;;;;;9.43;1.60;;;;;;;;;;1469515;40;20553;-81
2021/08/07 00:30:51;;;;;;;7.28;1.50;;;;;;;;;;1469104;40;20425;-81
2021/08/07 00:31:52;;;;;;;11.40;1.40;;;;;;;;;;1469275;40;20906;-82
2021/08/07 00:32:54;;;;;;;13.98;2.08;;;;;;;;;;1469045;40;20882;-81
2021/08/07 00:33:56;;;;;;;9.13;1.52;;;;;;;;;;1471167;40;20423;-81
2021/08/07 00:34:57;;;;;;;13.82;2.20;;;;;;;;;;1469393;40;20492;-80
2021/08/07 00:35:59;;;;;;;9.70;1.70;;;;;;;;;;1472279;40;20435;-83
2021/08/07 00:37:04;;;;;;;9.68;2.00;;;;;;;;;;1465054;40;20420;-81
2021/08/07 00:38:07;;;;;;;8.57;1.67;;;;;;;;;;1465608;40;20424;-81
2021/08/07 00:39:09;;;;;;;13.35;2.63;;;;;;;;;;1465842;40;21264;-82
2021/08/07 00:40:11;;;;;;;10.52;1.63;;;;;;;;;;1469547;40;20426;-81
2021/08/07 00:41:13;;;;;;;7.68;1.75;;;;;;;;;;1469452;40;20484;-82
2021/08/07 00:42:14;;;;;;;14.52;2.00;;;;;;;;;;1469461;40;20398;-82
2021/08/07 00:43:16;;;;;;;11.02;2.38;;;;;;;;;;1465044;40;20423;-82
2021/08/07 00:44:17;;;;;;;7.18;1.65;;;;;;;;;;1461708;40;20762;-83
2021/08/07 00:45:19;;;;;;;12.82;2.00;;;;;;;;;;1465384;40;20835;-82
2021/08/07 00:46:21;;;;;;;10.32;2.40;;;;;;;;;;1469524;40;20417;-82
2021/08/07 00:47:22;;;;;;;14.80;3.15;;;;;;;;;;1469099;40;20421;-82
2021/08/07 00:48:26;;;;;;;11.77;1.92;;;;;;;;;;1465619;40;20406;-83
2021/08/07 00:49:28;;;;;;;14.50;2.08;;;;;;;;;;1474112;40;20408;-84
2021/08/07 00:50:29;;;;;;;9.55;2.03;;;;;;;;;;1473856;40;20404;-85
2021/08/07 00:51:32;;;;;;;13.25;2.80;;;;;;;;;;1469345;40;20422;-86
2021/08/07 00:52:33;;;;;;;9.85;2.08;;;;;;;;;;1471333;40;20518;-82
2021/08/07 00:53:36;;;;;;;11.65;1.90;;;;;;;;;;1473360;40;20412;-82
2021/08/07 00:54:41;;;;;;;5.70;1.90;;;;;;;;;;1473679;40;20420;-82
2021/08/07 00:55:42;;;;;;;14.50;2.85;;;;;;;;;;1474052;40;20412;-81
2021/08/07 00:56:44;;;;;;;9.15;2.03;;;;;;;;;;1473666;40;20420;-81
2021/08/07 00:57:46;;;;;;;10.75;1.65;;;;;;;;;;1469288;40;20815;-82
2021/08/07 00:58:48;;;;;;;12.30;1.92;;;;;;;;;;1469596;40;20563;-81
2021/08/07 00:59:50;;;;;;;11.57;2.35;;;;;;;;;;1469665;40;20498;-82
2021/08/07 01:00:52;;;;;;;14.25;2.08;;;;;;;;;;1473533;40;20464;-82
2021/08/07 01:01:58;;;;;;;11.75;2.15;;;;;;;;;;1477629;40;20409;-82
2021/08/07 01:03:26;;;;;;;8.90;1.88;;;;;;;;;;1477542;40;20489;-82
2021/08/07 01:04:42;;;;;;;10.45;2.33;;;;;;;;;;1474226;40;20916;-84
2021/08/07 01:06:08;;;;;;;13.73;2.53;;;;;;;;;;1474010;40;20415;-82
2021/08/07 01:07:19;;;;;;;12.20;3.08;;;;;;;;;;1473745;40;21062;-82
2021/08/07 01:08:23;;;;;;;10.63;2.42;;;;;;;;;;1473930;40;20388;-82
2021/08/07 01:09:43;;;;;;;19.52;2.95;;;;;;;;;;1474851;40;20444;-82
2021/08/07 01:10:51;;;;;;;17.88;3.17;;;;;;;;;;1469766;40;20409;-81
2021/08/07 01:12:24;;;;;;;15.05;2.90;;;;;;;;;;1470523;40;20808;-81
2021/08/07 01:13:32;;;;;;;13.00;2.63;;;;;;;;;;1473517;40;20543;-83
2021/08/07 01:14:38;;;;;;;9.93;2.13;;;;;;;;;;1473806;40;20858;-81
2021/08/07 01:15:53;;;;;;;11.95;2.25;;;;;;;;;;1469989;40;20386;-81
2021/08/07 01:16:55;;;;;;;13.18;2.90;;;;;;;;;;1470963;40;20465;-82
2021/08/07 01:18:01;;;;;;;12.95;2.90;;;;;;;;;;1474657;40;20529;-82
2021/08/07 01:19:04;;;;;;;14.57;2.70;;;;;;;;;;1469318;40;20402;-82
2021/08/07 01:20:18;;;;;;;12.25;2.75;;;;;;;;;;1465994;40;20467;-81
2021/08/07 01:21:25;;;;;;;12.10;2.47;;;;;;;;;;1470825;40;20473;-82
2021/08/07 01:22:42;;;;;;;14.57;2.83;;;;;;;;;;1470125;40;20520;-84
2021/08/07 01:23:56;;;;;;;9.52;2.03;;;;;;;;;;1466986;40;20467;-82
2021/08/07 01:25:03;;;;;;;10.60;2.63;;;;;;;;;;1467068;40;20404;-82
2021/08/07 01:26:16;;;;;;;10.32;2.78;;;;;;;;;;1466105;40;20499;-81
2021/08/07 01:27:29;;;;;;;14.00;2.92;;;;;;;;;;1469779;40;20409;-82
2021/08/07 01:28:34;;;;;;;10.80;2.25;;;;;;;;;;1471108;40;20402;-84
2021/08/07 01:29:37;;;;;;;12.57;2.67;;;;;;;;;;1473464;40;20411;-81
2021/08/07 01:30:40;;;;;;;11.05;2.55;;;;;;;;;;1469724;40;20457;-82
2021/08/07 01:31:46;;;;;;;11.30;2.80;;;;;;;;;;1462824;40;20421;-82
2021/08/07 01:32:49;;;;;;;11.55;2.42;;;;;;;;;;1470458;40;20425;-81
2021/08/07 01:33:51;;;;;;;11.93;2.25;;;;;;;;;;1474383;40;20451;-82
2021/08/07 01:34:54;;;;;;;11.68;1.80;;;;;;;;;;1470167;40;20420;-82
2021/08/07 01:35:57;;;;;;;13.30;3.10;;;;;;;;;;1469816;40;20429;-81
2021/08/07 01:36:59;;;;;;;10.50;2.47;;;;;;;;;;1473958;40;20497;-82
2021/08/07 01:38:01;;;;;;;7.72;1.80;;;;;;;;;;1473888;40;20441;-82
2021/08/07 01:39:03;;;;;;;10.75;2.20;;;;;;;;;;1469445;40;20468;-82
2021/08/07 01:40:08;;;;;;;9.98;2.08;;;;;;;;;;1465949;40;20458;-83
2021/08/07 01:41:18;;;;;;;13.73;2.28;;;;;;;;;;1470098;40;20457;-82
2021/08/07 01:42:20;;;;;;;10.95;2.08;;;;;;;;;;1474493;40;21145;-82
2021/08/07 01:43:22;;;;;;;10.73;1.90;;;;;;;;;;1478072;40;20816;-82
2021/08/07 01:44:24;;;;;;;10.88;2.25;;;;;;;;;;1466119;40;20427;-83
2021/08/07 01:45:25;;;;;;;11.43;2.72;;;;;;;;;;1465928;40;20419;-82
2021/08/07 01:46:39;;;;;;;15.23;2.20;;;;;;;;;;1477860;40;20459;-83
2021/08/07 01:48:16;;;;;;;9.63;1.58;;;;;;;;;;1477258;40;20437;-83
2021/08/07 01:49:29;;;;;;;10.23;2.60;;;;;;;;;;1467816;40;20517;-82
2021/08/07 01:50:36;;;;;;;13.50;3.05;;;;;;;;;;1477991;40;20434;-85
2021/08/07 01:51:53;;;;;;;14.40;2.28;;;;;;;;;;1473092;40;20903;-82
2021/08/07 01:53:00;;;;;;;10.57;2.38;;;;;;;;;;1469689;40;20453;-82
2021/08/07 01:54:04;;;;;;;14.43;2.10;;;;;;;;;;1469579;40;20748;-81
2021/08/07 01:55:11;;;;;;;13.18;3.03;;;;;;;;;;1469946;40;20507;-82
2021/08/07 01:56:25;;;;;;;15.25;2.65;;;;;;;;;;1470122;40;20433;-82
2021/08/07 01:57:31;;;;;;;10.68;2.67;;;;;;;;;;1474159;40;20396;-85
2021/08/07 01:58:39;;;;;;;9.50;2.05;;;;;;;;;;1473986;40;20447;-82
2021/08/07 01:59:45;;;;;;;13.02;2.22;;;;;;;;;;1474599;40;20497;-83
2021/08/07 02:00:47;;;;;;;9.98;2.20;;;;;;;;;;1473722;40;20824;-82
2021/08/07 02:01:50;;;;;;;12.80;2.30;;;;;;;;;;1474520;40;20411;-81
2021/08/07 02:02:54;;;;;;;12.38;3.08;;;;;;;;;;1475619;40;20419;-82
2021/08/07 02:03:59;;;;;;;10.63;2.63;;;;;;;;;;1472157;40;20414;-83
2021/08/07 02:05:00;;;;;;;11.30;2.33;;;;;;;;;;1471640;40;20514;-82
2021/08/07 02:06:02;;;;;;;7.15;2.03;;;;;;;;;;1472349;40;20413;-81
2021/08/07 02:07:04;;;;;;;13.30;2.75;;;;;;;;;;1472357;40;20508;-82
2021/08/07 02:08:09;;;;;;;8.77;2.83;;;;;;;;;;1470865;40;20754;-82
2021/08/07 02:09:12;;;;;;;10.55;2.55;;;;;;;;;;1474470;40;20496;-81
2021/08/07 02:10:14;;;;;;;11.20;2.05;;;;;;;;;;1470948;40;20405;-82
2021/08/07 02:11:17;;;;;;;8.95;2.58;;;;;;;;;;1470590;40;20660;-82
2021/08/07 02:12:19;;;;;;;8.45;1.67;;;;;;;;;;1469922;40;20414;-82
2021/08/07 02:13:21;;;;;;;13.07;2.58;;;;;;;;;;1466031;40;20763;-82
2021/08/07 02:14:27;;;;;;;12.60;2.47;;;;;;;;;;1470232;40;20440;-82
2021/08/07 02:15:32;;;;;;;9.50;2.00;;;;;;;;;;1474183;40;20395;-83
2021/08/07 02:16:39;;;;;;;12.43;2.45;;;;;;;;;;1469335;40;20838;-83
2021/08/07 02:17:43;;;;;;;8.23;2.20;;;;;;;;;;1469881;40;20418;-82
2021/08/07 02:18:45;;;;;;;11.02;2.55;;;;;;;;;;1470354;40;20488;-82
2021/08/07 02:19:48;;;;;;;9.95;1.65;;;;;;;;;;1470113;40;20473;-82
2021/08/07 02:20:52;;;;;;;9.85;1.58;;;;;;;;;;1470132;40;20507;-82
2021/08/07 02:21:55;;;;;;;9.55;2.55;;;;;;;;;;1473195;40;20468;-82
2021/08/07 02:22:57;;;;;;;9.02;1.38;;;;;;;;;;1469858;40;20591;-83
2021/08/07 02:23:59;;;;;;;4.72;1.10;;;;;;;;;;1464361;40;20514;-82
2021/08/07 02:25:02;;;;;;;11.25;2.70;;;;;;;;;;1462478;40;20438;-83
2021/08/07 02:26:07;;;;;;;9.20;2.25;;;;;;;;;;1465814;40;20438;-82
2021/08/07 02:27:08;;;;;;;11.65;2.40;;;;;;;;;;1465577;40;20403;-83
2021/08/07 02:28:12;;;;;;;7.93;1.85;;;;;;;;;;1465664;40;20661;-82
2021/08/07 02:29:14;;;;;;;8.63;1.70;;;;;;;;;;1468136;40;20800;-82
2021/08/07 02:30:16;;;;;;;13.90;1.70;;;;;;;;;;1465491;40;21072;-82
2021/08/07 02:31:19;;;;;;;9.82;1.90;;;;;;;;;;1461764;40;20460;-82
2021/08/07 02:32:21;;;;;;;8.15;1.85;;;;;;;;;;1465415;40;20485;-81
2021/08/07 02:33:25;;;;;;;12.60;2.67;;;;;;;;;;1469499;40;20496;-82
2021/08/07 02:34:29;;;;;;;11.60;2.10;;;;;;;;;;1470286;40;20428;-83
2021/08/07 02:35:31;;;;;;;8.45;2.33;;;;;;;;;;1465756;40;20697;-85
2021/08/07 02:36:33;;;;;;;10.38;2.60;;;;;;;;;;1461689;40;20861;-85
2021/08/07 02:37:36;;;;;;;9.80;1.73;;;;;;;;;;1465897;40;20430;-82
2021/08/07 02:38:38;;;;;;;13.00;3.08;;;;;;;;;;1469349;40;20401;-82
2021/08/07 02:39:40;;;;;;;10.25;2.15;;;;;;;;;;1466147;40;20415;-82
2021/08/07 02:40:42;;;;;;;11.50;2.25;;;;;;;;;;1469363;40;20436;-83
2021/08/07 02:41:45;;;;;;;8.52;1.75;;;;;;;;;;1465881;40;20419;-82
2021/08/07 02:42:47;;;;;;;9.82;1.67;;;;;;;;;;1462760;40;21008;-81
2021/08/07 02:43:50;;;;;;;12.85;1.95;;;;;;;;;;1464201;40;21036;-82
2021/08/07 02:44:52;;;;;;;9.48;1.80;;;;;;;;;;1468559;40;20426;-86
2021/08/07 02:45:54;;;;;;;15.25;2.75;;;;;;;;;;1468701;40;20415;-83
2021/08/07 02:46:56;;;;;;;11.20;1.80;;;;;;;;;;1468786;40;20418;-82
2021/08/07 02:47:59;;;;;;;7.15;1.58;;;;;;;;;;1465111;40;20444;-83
2021/08/07 02:49:01;;;;;;;11.73;2.67;;;;;;;;;;1468640;40;20455;-83
2021/08/07 02:50:03;;;;;;;8.27;2.25;;;;;;;;;;1465104;40;20543;-82
2021/08/07 02:51:05;;;;;;;8.80;2.60;;;;;;;;;;1461359;40;20422;-82
2021/08/07 02:52:07;;;;;;;10.55;2.05;;;;;;;;;;1464302;40;20795;-82
2021/08/07 02:53:10;;;;;;;8.95;2.05;;;;;;;;;;1471292;40;20470;-81
2021/08/07 02:54:12;;;;;;;8.43;2.08;;;;;;;;;;1471498;40;20440;-82
2021/08/07 02:55:14;;;;;;;11.75;2.60;;;;;;;;;;1475423;40;20417;-83
2021/08/07 02:56:16;;;;;;;9.48;1.42;;;;;;;;;;1474769;40;20476;-82
2021/08/07 02:57:18;;;;;;;12.27;2.00;;;;;;;;;;1472396;40;20476;-82
2021/08/07 02:58:21;;;;;;;8.52;1.60;;;;;;;;;;1473872;40;20442;-82
2021/08/07 02:59:24;;;;;;;9.73;2.20;;;;;;;;;;1474713;40;20410;-82
2021/08/07 03:00:26;;;;;;;11.02;2.15;;;;;;;;;;1470980;40;20526;-83
2021/08/07 03:01:27;;;;;;;11.43;1.95;;;;;;;;;;1470132;40;20472;-83
2021/08/07 03:02:29;;;;;;;8.50;1.83;;;;;;;;;;1466807;40;20423;-82
2021/08/07 03:03:31;;;;;;;9.45;1.80;;;;;;;;;;1462685;40;20507;-82
2021/08/07 03:04:34;;;;;;;8.93;1.52;;;;;;;;;;1462833;40;20436;-84
2021/08/07 03:05:36;;;;;;;10.55;1.63;;;;;;;;;;1462736;40;20468;-84
2021/08/07 03:06:39;;;;;;;11.68;1.90;;;;;;;;;;1466307;40;20416;-83
2021/08/07 03:07:41;;;;;;;9.68;1.83;;;;;;;;;;1469479;40;20413;-83
2021/08/07 03:08:42;;;;;;;11.88;2.10;;;;;;;;;;1465665;40;20872;-83
2021/08/07 03:09:44;;;;;;;10.05;1.90;;;;;;;;;;1462238;40;20531;-82
2021/08/07 03:10:46;;;;;;;11.10;2.60;;;;;;;;;;1461908;40;20413;-83
2021/08/07 03:11:48;;;;;;;13.05;3.33;;;;;;;;;;1465709;40;20439;-82
2021/08/07 03:12:52;;;;;;;9.55;1.80;;;;;;;;;;1465630;40;20455;-82
2021/08/07 03:13:54;;;;;;;11.40;2.63;;;;;;;;;;1457840;40;20418;-82
2021/08/07 03:14:55;;;;;;;8.20;1.98;;;;;;;;;;1462066;40;20650;-82
2021/08/07 03:15:57;;;;;;;5.82;1.60;;;;;;;;;;1469658;40;20484;-83
2021/08/07 03:16:59;;;;;;;7.15;1.52;;;;;;;;;;1469146;40;20780;-84
2021/08/07 03:18:01;;;;;;;11.98;2.65;;;;;;;;;;1465672;40;20554;-85
2021/08/07 03:19:02;;;;;;;12.50;1.50;;;;;;;;;;1469274;40;20433;-82
2021/08/07 03:20:05;;;;;;;9.18;1.70;;;;;;;;;;1465688;40;20435;-82
2021/08/07 03:21:06;;;;;;;8.93;1.75;;;;;;;;;;1465369;40;20790;-81
2021/08/07 03:22:08;;;;;;;12.82;2.20;;;;;;;;;;1461390;40;20437;-82
2021/08/07 03:23:10;;;;;;;12.25;2.20;;;;;;;;;;1461413;40;20460;-82
2021/08/07 03:24:11;;;;;;;11.23;3.35;;;;;;;;;;1467907;40;20528;-82
2021/08/07 03:25:13;;;;;;;8.57;2.88;;;;;;;;;;1465485;40;20423;-82
2021/08/07 03:26:15;;;;;;;9.10;2.03;;;;;;;;;;1465499;40;20423;-85
2021/08/07 03:27:16;;;;;;;14.35;2.65;;;;;;;;;;1469433;40;20756;-82
2021/08/07 03:28:18;;;;;;;10.32;1.77;;;;;;;;;;1465844;40;20416;-82
2021/08/07 03:29:20;;;;;;;6.57;1.98;;;;;;;;;;1465873;40;20513;-85
2021/08/07 03:30:22;;;;;;;8.77;1.65;;;;;;;;;;1465370;40;20478;-82
2021/08/07 03:31:24;;;;;;;8.18;1.77;;;;;;;;;;1468416;40;20488;-81
2021/08/07 03:32:26;;;;;;;7.40;1.50;;;;;;;;;;1473645;40;20416;-81
2021/08/07 03:33:27;;;;;;;8.68;1.85;;;;;;;;;;1469817;40;20409;-82
2021/08/07 03:34:29;;;;;;;8.35;1.70;;;;;;;;;;1469460;40;20723;-85
2021/08/07 03:35:31;;;;;;;9.73;1.42;;;;;;;;;;1473902;40;20546;-85
2021/08/07 03:36:32;;;;;;;11.85;2.47;;;;;;;;;;1473493;40;20502;-84
2021/08/07 03:37:34;;;;;;;8.38;1.40;;;;;;;;;;1469609;40;20964;-82
2021/08/07 03:38:37;;;;;;;12.48;2.08;;;;;;;;;;1469727;40;20465;-82
2021/08/07 03:39:39;;;;;;;7.57;2.03;;;;;;;;;;1469473;40;20430;-82
2021/08/07 03:40:41;;;;;;;7.00;1.50;;;;;;;;;;1473492;40;20694;-82
2021/08/07 03:41:43;;;;;;;8.95;1.23;;;;;;;;;;1473438;40;20535;-82
2021/08/07 03:42:44;;;;;;;8.73;1.92;;;;;;;;;;1473688;40;20440;-82
2021/08/07 03:43:46;;;;;;;8.55;1.50;;;;;;;;;;1476986;40;20699;-82
2021/08/07 03:44:48;;;;;;;11.15;2.15;;;;;;;;;;1477631;40;20540;-83
2021/08/07 03:45:49;;;;;;;7.13;2.15;;;;;;;;;;1473463;40;21141;-83
2021/08/07 03:46:51;;;;;;;9.50;2.35;;;;;;;;;;1469611;40;20455;-82
2021/08/07 03:47:54;;;;;;;10.73;2.17;;;;;;;;;;1473504;40;20868;-82
2021/08/07 03:48:56;;;;;;;8.48;1.67;;;;;;;;;;1477649;40;20425;-82
2021/08/07 03:49:57;;;;;;;10.65;1.98;;;;;;;;;;1474473;40;20400;-81
2021/08/07 03:50:59;;;;;;;11.45;1.42;;;;;;;;;;1477341;40;20527;-82
2021/08/07 03:52:01;;;;;;;11.93;1.80;;;;;;;;;;1477755;40;20470;-82
2021/08/07 03:53:02;;;;;;;9.45;1.80;;;;;;;;;;1473667;40;20432;-81
2021/08/07 03:54:04;;;;;;;7.95;1.90;;;;;;;;;;1469626;40;20477;-82
2021/08/07 03:55:06;;;;;;;7.93;2.30;;;;;;;;;;1469519;40;20421;-83
2021/08/07 03:56:08;;;;;;;10.25;2.00;;;;;;;;;;1468719;40;20553;-82
2021/08/07 03:57:09;;;;;;;13.57;2.60;;;;;;;;;;1465211;40;20443;-82
2021/08/07 03:58:11;;;;;;;11.30;1.52;;;;;;;;;;1469900;40;20495;-82
2021/08/07 03:59:12;;;;;;;8.80;1.37;;;;;;;;;;1473605;40;20526;-82
2021/08/07 04:00:15;;;;;;;7.65;1.58;;;;;;;;;;1473519;40;20436;-82
2021/08/07 04:01:17;;;;;;;13.18;2.40;;;;;;;;;;1473485;40;20803;-82
2021/08/07 04:02:19;;;;;;;7.38;1.40;;;;;;;;;;1474092;40;20431;-82
2021/08/07 04:03:22;;;;;;;13.25;2.03;;;;;;;;;;1473465;40;20431;-83
2021/08/07 04:04:24;;;;;;;13.43;2.10;;;;;;;;;;1469672;40;20398;-83
2021/08/07 04:05:26;;;;;;;10.05;2.13;;;;;;;;;;1472990;40;20578;-83
2021/08/07 04:06:28;;;;;;;8.43;1.48;;;;;;;;;;1473080;40;20736;-82
2021/08/07 04:07:29;;;;;;;11.00;2.45;;;;;;;;;;1469256;40;20826;-85
2021/08/07 04:08:31;;;;;;;10.95;2.38;;;;;;;;;;1464766;40;20539;-85
2021/08/07 04:09:33;;;;;;;9.63;1.88;;;;;;;;;;1465423;40;20411;-85
2021/08/07 04:10:35;;;;;;;10.50;1.98;;;;;;;;;;1468847;40;20835;-83
2021/08/07 04:11:37;;;;;;;13.00;1.92;;;;;;;;;;1469701;40;20429;-82
2021/08/07 04:12:38;;;;;;;12.02;2.03;;;;;;;;;;1469357;40;20898;-82
2021/08/07 04:13:40;;;;;;;10.88;2.22;;;;;;;;;;1465353;40;20432;-82
2021/08/07 04:14:41;;;;;;;9.15;1.80;;;;;;;;;;1473431;40;20928;-82
2021/08/07 04:15:43;;;;;;;10.57;1.67;;;;;;;;;;1473464;40;20501;-82
2021/08/07 04:16:45;;;;;;;12.65;2.25;;;;;;;;;;1474293;40;20553;-82
2021/08/07 04:17:46;;;;;;;8.60;1.67;;;;;;;;;;1477424;40;20414;-83
2021/08/07 04:18:48;;;;;;;7.75;1.48;;;;;;;;;;1474036;40;20474;-82
2021/08/07 04:19:50;;;;;;;8.38;1.58;;;;;;;;;;1464567;40;21051;-81
2021/08/07 04:20:53;;;;;;;9.85;1.40;;;;;;;;;;1468625;40;21016;-82
2021/08/07 04:21:55;;;;;;;7.28;2.05;;;;;;;;;;1477622;40;20830;-82
2021/08/07 04:22:57;;;;;;;8.35;1.42;;;;;;;;;;1473549;40;20878;-82
2021/08/07 04:23:58;;;;;;;8.95;2.03;;;;;;;;;;1473290;40;21170;-83
2021/08/07 04:25:00;;;;;;;7.15;1.88;;;;;;;;;;1477383;40;20786;-82
2021/08/07 04:26:02;;;;;;;10.15;1.90;;;;;;;;;;1477638;40;20424;-83
2021/08/07 04:27:04;;;;;;;12.00;2.13;;;;;;;;;;1473624;40;20416;-83
2021/08/07 04:28:06;;;;;;;9.65;1.83;;;;;;;;;;1469506;40;20469;-82
2021/08/07 04:29:07;;;;;;;10.27;1.52;;;;;;;;;;1473491;40;20419;-81
2021/08/07 04:30:11;;;;;;;10.15;1.55;;;;;;;;;;1477438;40;20520;-85
2021/08/07 04:31:12;;;;;;;7.70;1.65;;;;;;;;;;1474964;40;20493;-82
2021/08/07 04:32:15;;;;;;;11.23;2.33;;;;;;;;;;1469881;40;20789;-86
2021/08/07 04:33:17;;;;;;;11.00;1.55;;;;;;;;;;1471726;40;20416;-82
2021/08/07 04:34:18;;;;;;;8.90;1.95;;;;;;;;;;1473245;40;20838;-82
2021/08/07 04:35:20;;;;;;;12.00;1.80;;;;;;;;;;1473998;40;20411;-84
2021/08/07 04:36:22;;;;;;;12.50;2.13;;;;;;;;;;1461964;40;21063;-81
2021/08/07 04:37:24;;;;;;;10.63;1.65;;;;;;;;;;1462469;40;20417;-82
2021/08/07 04:38:27;;;;;;;7.45;1.60;;;;;;;;;;1467818;40;20427;-83
2021/08/07 04:39:29;;;;;;;16.15;2.22;;;;;;;;;;1472396;40;20422;-82
2021/08/07 04:40:31;;;;;;;9.37;1.47;;;;;;;;;;1468309;40;20423;-84
2021/08/07 04:41:32;;;;;;;7.67;1.47;;;;;;;;;;1470299;40;20606;-86
2021/08/07 04:42:34;;;;;;;12.98;2.13;;;;;;;;;;1474223;40;20689;-85
2021/08/07 04:43:36;;;;;;;7.25;1.75;;;;;;;;;;1474360;40;20493;-83
2021/08/07 04:44:37;;;;;;;8.03;1.40;;;;;;;;;;1474482;40;20440;-81
2021/08/07 04:45:39;;;;;;;9.68;2.35;;;;;;;;;;1470734;40;20417;-82
2021/08/07 04:46:41;;;;;;;7.72;1.70;;;;;;;;;;1469944;40;20405;-82
2021/08/07 04:48:00;;;;;;;10.05;1.80;;;;;;;;;;1469839;40;20478;-82
2021/08/07 04:49:01;;;;;;;12.35;2.03;;;;;;;;;;1470212;40;20437;-82
2021/08/07 04:50:03;;;;;;;11.35;2.25;;;;;;;;;;1469775;40;20500;-81
2021/08/07 04:51:05;;;;;;;11.23;1.77;;;;;;;;;;1469425;40;21065;-82
2021/08/07 04:52:07;;;;;;;8.93;1.75;;;;;;;;;;1470047;40;20500;-82
2021/08/07 04:53:08;;;;;;;9.48;2.17;;;;;;;;;;1464442;40;20441;-82
2021/08/07 04:54:13;;;;;;;9.90;2.42;;;;;;;;;;1466104;40;20737;-82
2021/08/07 04:55:14;;;;;;;13.93;2.35;;;;;;;;;;1473976;40;20535;-81
2021/08/07 04:56:16;;;;;;;8.13;1.92;;;;;;;;;;1473911;40;20507;-81
2021/08/07 04:57:18;;;;;;;10.27;2.40;;;;;;;;;;1465866;40;20426;-82
2021/08/07 04:58:19;;;;;;;10.07;1.98;;;;;;;;;;1469330;40;20807;-82
2021/08/07 04:59:21;;;;;;;17.75;2.38;;;;;;;;;;1473918;40;20412;-82
2021/08/07 05:00:23;;;;;;;9.18;2.47;;;;;;;;;;1469708;40;20461;-82
2021/08/07 05:01:24;;;;;;;7.72;1.77;;;;;;;;;;1473765;40;20411;-82
2021/08/07 05:02:26;;;;;;;7.50;2.03;;;;;;;;;;1470120;40;20414;-82
2021/08/07 05:03:28;;;;;;;9.35;2.30;;;;;;;;;;1461881;40;20517;-81
2021/08/07 05:04:30;;;;;;;8.55;2.00;;;;;;;;;;1465828;40;20577;-85
2021/08/07 05:05:32;;;;;;;8.73;1.90;;;;;;;;;;1473828;40;20987;-84
2021/08/07 05:06:34;;;;;;;6.90;1.85;;;;;;;;;;1473932;40;20436;-84
2021/08/07 05:07:35;;;;;;;11.02;1.95;;;;;;;;;;1465963;40;20427;-83
2021/08/07 05:08:40;;;;;;;9.45;1.95;;;;;;;;;;1461775;40;20496;-82
2021/08/07 05:09:41;;;;;;;8.63;2.13;;;;;;;;;;1466122;40;20470;-82
2021/08/07 05:10:43;;;;;;;9.03;2.20;;;;;;;;;;1470846;40;20493;-82
2021/08/07 05:11:45;;;;;;;10.90;1.73;;;;;;;;;;1474541;40;20423;-82
2021/08/07 05:12:46;;;;;;;9.13;1.58;;;;;;;;;;1477583;40;20441;-81
2021/08/07 05:13:48;;;;;;;10.23;1.95;;;;;;;;;;1474115;40;20423;-82
2021/08/07 05:14:49;;;;;;;10.60;1.80;;;;;;;;;;1473628;40;20476;-83
2021/08/07 05:15:51;;;;;;;9.48;2.20;;;;;;;;;;1474056;40;20451;-82
2021/08/07 05:16:54;;;;;;;11.55;1.83;;;;;;;;;;1473880;40;20979;-83
2021/08/07 05:17:56;;;;;;;9.52;2.47;;;;;;;;;;1478359;40;20418;-82
2021/08/07 05:18:57;;;;;;;11.70;2.60;;;;;;;;;;1474057;40;20841;-82
2021/08/07 05:19:59;;;;;;;8.93;2.05;;;;;;;;;;1469578;40;20836;-82
2021/08/07 05:21:01;;;;;;;8.27;1.70;;;;;;;;;;1469533;40;20433;-82
2021/08/07 05:22:03;;;;;;;7.13;1.70;;;;;;;;;;1470431;40;20394;-82
2021/08/07 05:23:04;;;;;;;10.87;2.13;;;;;;;;;;1468155;40;20553;-83
2021/08/07 05:24:06;;;;;;;7.18;2.08;;;;;;;;;;1465442;40;20431;-82
2021/08/07 05:25:10;;;;;;;10.85;2.20;;;;;;;;;;1466432;40;20439;-83
2021/08/07 05:26:11;;;;;;;9.23;1.67;;;;;;;;;;1466474;40;21014;-83
2021/08/07 05:27:13;;;;;;;10.43;2.28;;;;;;;;;;1465050;40;20413;-85
2021/08/07 05:28:15;;;;;;;7.72;2.05;;;;;;;;;;1467133;40;20476;-84
2021/08/07 05:29:16;;;;;;;9.23;2.53;;;;;;;;;;1470996;40;20499;-87
2021/08/07 05:30:20;;;;;;;10.35;1.85;;;;;;;;;;1468571;40;20422;-82
2021/08/07 05:31:22;;;;;;;9.02;1.83;;;;;;;;;;1471475;40;20410;-82
2021/08/07 05:32:24;;;;;;;10.52;2.35;;;;;;;;;;1476521;40;20798;-83
2021/08/07 05:33:25;;;;;;;9.20;1.92;;;;;;;;;;1479556;40;20439;-85
2021/08/07 05:34:27;;;;;;;12.15;2.30;;;;;;;;;;1472419;40;20399;-82
2021/08/07 05:35:28;;;;;;;9.18;1.73;;;;;;;;;;1475739;40;20445;-83
2021/08/07 05:36:30;;;;;;;5.35;1.45;;;;;;;;;;1477990;40;20389;-84
2021/08/07 05:37:36;;;;;;;7.82;1.52;;;;;;;;;;1476099;40;20404;-85
2021/08/07 05:38:38;;;;;;;8.65;1.63;;;;;;;;;;1480432;40;20827;-83
2021/08/07 05:39:39;;;;;;;12.70;1.92;;;;;;;;;;1479123;40;20420;-83
2021/08/07 05:40:41;;;;;;;7.53;1.63;;;;;;;;;;1471907;40;20459;-83
2021/08/07 05:41:43;;;;;;;9.60;1.80;;;;;;;;;;1471904;40;20532;-83
2021/08/07 05:42:45;;;;;;;9.95;1.70;;;;;;;;;;1476073;40;20420;-82
2021/08/07 05:43:46;;;;;;;9.90;2.17;;;;;;;;;;1479135;40;20910;-81
2021/08/07 05:44:48;;;;;;;10.77;1.95;;;;;;;;;;1476811;40;20424;-82
2021/08/07 05:45:50;;;;;;;6.82;1.60;;;;;;;;;;1483498;40;20418;-82
2021/08/07 05:46:51;;;;;;;8.45;1.52;;;;;;;;;;1484361;40;20415;-85
2021/08/07 05:47:53;;;;;;;7.13;2.25;;;;;;;;;;1475262;40;20428;-85
2021/08/07 05:48:56;;;;;;;8.65;1.25;;;;;;;;;;1469308;40;20455;-82
2021/08/07 05:49:57;;;;;;;5.03;1.43;;;;;;;;;;1463169;40;20493;-82
2021/08/07 05:51:00;;;;;;;8.57;1.70;;;;;;;;;;1467093;40;20411;-82
2021/08/07 05:52:01;;;;;;;8.73;1.30;;;;;;;;;;1467239;40;20497;-82
2021/08/07 05:53:03;;;;;;;10.43;1.75;;;;;;;;;;1469895;40;20429;-82
2021/08/07 05:54:05;;;;;;;12.98;1.92;;;;;;;;;;1473990;40;20518;-83
2021/08/07 05:55:07;;;;;;;9.45;1.83;;;;;;;;;;1474853;40;20420;-82
2021/08/07 05:56:09;;;;;;;11.90;2.23;;;;;;;;;;1474314;40;20420;-82
2021/08/07 05:57:11;;;;;;;14.50;3.08;;;;;;;;;;1470103;40;20413;-83
2021/08/07 05:58:13;;;;;;;9.75;2.35;;;;;;;;;;1473966;40;20408;-83
2021/08/07 05:59:14;;;;;;;9.23;1.75;;;;;;;;;;1469767;40;21071;-82
2021/08/07 06:00:16;;;;;;;8.63;1.67;;;;;;;;;;1465309;40;20656;-82
2021/08/07 06:01:18;;;;;;;17.70;4.75;;;;;;;;;;1466166;40;20536;-83
2021/08/07 06:02:19;;;;;;;8.93;1.55;;;;;;;;;;1470009;40;20414;-82
2021/08/07 06:03:21;;;;;;;11.23;1.67;;;;;;;;;;1473551;40;20415;-81
2021/08/07 06:04:23;;;;;;;8.40;1.50;;;;;;;;;;1469792;40;20861;-83
2021/08/07 06:05:24;;;;;;;5.00;1.40;;;;;;;;;;1473769;40;20440;-81
2021/08/07 06:06:26;;;;;;;9.07;1.02;;;;;;;;;;1473890;40;20438;-82
2021/08/07 06:07:27;;;;;;;7.90;1.50;;;;;;;;;;1478037;40;20461;-83
2021/08/07 06:08:29;;;;;;;7.00;1.48;;;;;;;;;;1473621;40;20430;-82
2021/08/07 06:09:31;;;;;;;6.72;1.48;;;;;;;;;;1470112;40;20510;-86
2021/08/07 06:10:32;;;;;;;10.95;2.00;;;;;;;;;;1473644;40;20424;-84
2021/08/07 06:11:34;;;;;;;6.25;1.23;;;;;;;;;;1473973;40;20637;-85
2021/08/07 06:12:36;;;;;;;5.82;1.23;;;;;;;;;;1473719;40;20423;-82
2021/08/07 06:13:38;;;;;;;8.18;1.30;;;;;;;;;;1472922;40;21152;-82
2021/08/07 06:14:39;;;;;;;8.80;1.60;;;;;;;;;;1469626;40;20850;-82
2021/08/07 06:15:41;;;;;;;8.75;1.40;;;;;;;;;;1473911;40;20400;-82